createdAt,value
2022-11-16T00:01:46.799Z,12.50
2022-11-16T00:04:14.916Z,12.50
2022-11-16T00:06:42.927Z,12.50
2022-11-16T00:09:27.072Z,12.50
2022-11-16T00:11:57.209Z,12.40
2022-11-16T00:14:27.998Z,12.40
2022-11-16T00:16:56.706Z,12.40
2022-11-16T00:19:25.549Z,12.40
2022-11-16T00:21:53.937Z,12.40
2022-11-16T00:24:24.325Z,12.50
2022-11-16T00:26:54.333Z,12.40
2022-11-16T00:29:24.052Z,12.50
2022-11-16T00:31:53.690Z,12.50
2022-11-16T00:34:22.422Z,12.50
2022-11-16T00:36:50.516Z,12.50
2022-11-16T00:39:20.832Z,12.40
2022-11-16T00:41:50.465Z,12.40
2022-11-16T00:44:19.065Z,12.40
2022-11-16T00:46:47.529Z,12.40
2022-11-16T00:49:16.085Z,12.40
2022-11-16T00:51:44.244Z,12.40
2022-11-16T00:54:12.719Z,12.40
2022-11-16T00:56:41.056Z,12.40
2022-11-16T00:59:10.610Z,12.40
2022-11-16T01:01:38.842Z,12.40
2022-11-16T01:04:07.945Z,12.40
2022-11-16T01:06:37.296Z,12.40
2022-11-16T01:09:05.494Z,12.40
2022-11-16T01:11:51.101Z,12.40
2022-11-16T01:14:20.618Z,12.40
2022-11-16T01:16:50.923Z,12.40
2022-11-16T01:19:18.952Z,12.40
2022-11-16T01:21:47.035Z,12.40
2022-11-16T01:24:15.044Z,12.40
2022-11-16T01:26:43.030Z,12.40
2022-11-16T01:29:11.210Z,12.40
2022-11-16T01:31:44.896Z,12.40
2022-11-16T01:34:12.858Z,12.40
2022-11-16T01:36:40.806Z,12.40
2022-11-16T01:39:08.913Z,12.40
2022-11-16T01:41:45.651Z,12.40
2022-11-16T01:44:51.456Z,12.40
2022-11-16T01:47:21.768Z,12.40
2022-11-16T01:49:55.145Z,12.40
2022-11-16T01:52:32.550Z,12.40
2022-11-16T01:55:01.368Z,12.40
2022-11-16T01:57:41.711Z,12.40
2022-11-16T02:00:13.518Z,12.40
2022-11-16T02:03:05.762Z,12.40
2022-11-16T02:05:58.341Z,12.40
2022-11-16T02:08:59.652Z,12.40
2022-11-16T02:11:44.724Z,12.40
2022-11-16T02:14:26.256Z,12.40
2022-11-16T02:17:02.044Z,12.40
2022-11-16T02:20:15.904Z,12.40
2022-11-16T02:23:02.405Z,12.40
2022-11-16T02:25:38.024Z,12.40
2022-11-16T02:28:29.408Z,12.40
2022-11-16T02:31:03.754Z,12.40
2022-11-16T02:33:37.886Z,12.40
2022-11-16T02:36:10.080Z,12.40
2022-11-16T02:38:42.959Z,12.50
2022-11-16T02:41:16.803Z,12.50
2022-11-16T02:43:46.590Z,12.40
2022-11-16T02:46:22.028Z,12.40
2022-11-16T02:48:54.453Z,12.50
2022-11-16T02:51:25.449Z,12.50
2022-11-16T02:54:02.177Z,12.50
2022-11-16T02:56:31.613Z,12.40
2022-11-16T02:59:01.054Z,12.40
2022-11-16T03:01:37.527Z,12.40
2022-11-16T03:04:13.096Z,12.40
2022-11-16T03:06:43.723Z,12.40
2022-11-16T03:09:15.946Z,12.40
2022-11-16T03:11:59.772Z,12.30
2022-11-16T03:14:34.596Z,12.30
2022-11-16T03:17:07.178Z,12.40
2022-11-16T03:19:40.685Z,12.40
2022-11-16T03:22:15.304Z,12.40
2022-11-16T03:24:44.950Z,12.40
2022-11-16T03:27:21.912Z,12.40
2022-11-16T03:29:59.494Z,12.40
2022-11-16T03:32:35.508Z,12.40
2022-11-16T03:35:13.014Z,12.40
2022-11-16T03:37:42.050Z,12.40
2022-11-16T03:40:13.677Z,12.40
2022-11-16T03:42:43.245Z,12.40
2022-11-16T03:45:13.397Z,12.40
2022-11-16T03:47:44.055Z,12.40
2022-11-16T03:50:12.395Z,12.50
2022-11-16T03:52:41.467Z,12.40
2022-11-16T03:55:10.044Z,12.40
2022-11-16T03:57:38.033Z,12.40
2022-11-16T04:00:07.313Z,12.40
2022-11-16T04:02:41.329Z,12.40
2022-11-16T04:05:33.216Z,12.40
2022-11-16T04:08:18.654Z,12.40
2022-11-16T04:11:04.047Z,12.40
2022-11-16T04:13:53.032Z,12.40
2022-11-16T04:16:37.887Z,12.40
2022-11-16T04:19:27.495Z,12.40
2022-11-16T04:22:16.958Z,12.40
2022-11-16T04:24:47.697Z,12.40
2022-11-16T04:27:35.071Z,12.40
2022-11-16T04:30:05.544Z,12.40
2022-11-16T04:32:52.807Z,12.40
2022-11-16T04:35:43.409Z,12.50
2022-11-16T04:38:13.289Z,12.40
2022-11-16T04:40:41.333Z,12.40
2022-11-16T04:43:11.038Z,12.40
2022-11-16T04:45:59.254Z,12.40
2022-11-16T04:48:35.034Z,12.40
2022-11-16T04:51:04.052Z,12.40
2022-11-16T04:53:34.649Z,12.40
2022-11-16T04:56:12.403Z,12.40
2022-11-16T04:58:40.430Z,12.40
2022-11-16T05:01:09.820Z,12.30
2022-11-16T05:03:37.828Z,12.40
2022-11-16T05:06:06.085Z,12.40
2022-11-16T05:08:36.606Z,12.30
2022-11-16T05:11:06.325Z,12.30
2022-11-16T05:13:34.436Z,12.30
2022-11-16T05:16:03.288Z,12.30
2022-11-16T05:18:31.326Z,12.20
2022-11-16T05:21:01.091Z,12.30
2022-11-16T05:23:50.983Z,12.30
2022-11-16T05:26:23.370Z,12.30
2022-11-16T05:28:52.599Z,12.30
2022-11-16T05:31:21.699Z,12.30
2022-11-16T05:33:50.198Z,12.30
2022-11-16T05:36:19.518Z,12.30
2022-11-16T05:38:47.677Z,12.30
2022-11-16T05:41:15.777Z,12.30
2022-11-16T05:43:45.545Z,12.20
2022-11-16T05:46:18.755Z,12.20
2022-11-16T05:48:46.981Z,12.20
2022-11-16T05:51:14.961Z,12.20
2022-11-16T05:53:44.098Z,12.20
2022-11-16T05:56:15.599Z,12.20
2022-11-16T05:58:47.657Z,12.20
2022-11-16T06:01:16.550Z,12.10
2022-11-16T06:03:44.697Z,12.10
2022-11-16T06:06:12.942Z,12.10
2022-11-16T06:08:40.985Z,12.10
2022-11-16T06:11:13.615Z,12.10
2022-11-16T06:13:41.639Z,12.00
2022-11-16T06:16:11.124Z,11.80
2022-11-16T06:18:41.469Z,11.80
2022-11-16T06:21:11.079Z,11.80
2022-11-16T06:23:39.818Z,11.80
2022-11-16T06:26:09.144Z,11.70
2022-11-16T06:28:37.756Z,11.70
2022-11-16T06:31:06.551Z,11.60
2022-11-16T06:33:40.011Z,11.60
2022-11-16T06:36:14.793Z,11.50
2022-11-16T06:38:42.834Z,11.50
2022-11-16T06:41:11.846Z,11.40
2022-11-16T06:43:44.917Z,11.40
2022-11-16T06:46:14.905Z,11.40
2022-11-16T06:48:45.004Z,11.50
2022-11-16T06:51:14.816Z,11.40
2022-11-16T06:53:43.027Z,11.40
2022-11-16T06:56:15.173Z,11.40
2022-11-16T06:59:09.668Z,11.40
2022-11-16T07:01:37.817Z,11.40
2022-11-16T07:04:13.576Z,11.40
2022-11-16T07:06:45.765Z,11.50
2022-11-16T07:09:16.946Z,11.60
2022-11-16T07:11:45.599Z,11.60
2022-11-16T07:14:15.643Z,11.70
2022-11-16T07:16:44.649Z,11.70
2022-11-16T07:19:14.411Z,11.70
2022-11-16T07:21:43.819Z,11.60
2022-11-16T07:24:16.636Z,11.60
2022-11-16T07:26:44.675Z,11.60
2022-11-16T07:29:18.007Z,11.60
2022-11-16T07:32:05.277Z,11.60
2022-11-16T07:34:52.965Z,11.60
2022-11-16T07:37:22.002Z,11.60
2022-11-16T07:39:49.963Z,11.50
2022-11-16T07:42:18.210Z,11.50
2022-11-16T07:45:02.212Z,11.60
2022-11-16T07:47:30.264Z,11.50
2022-11-16T07:49:59.727Z,11.50
2022-11-16T07:52:29.379Z,11.50
2022-11-16T07:55:09.046Z,11.50
2022-11-16T07:57:37.522Z,11.60
2022-11-16T08:00:09.394Z,11.60
2022-11-16T08:02:48.358Z,11.60
2022-11-16T08:05:21.997Z,11.60
2022-11-16T08:07:51.605Z,11.60
2022-11-16T08:10:23.839Z,11.60
2022-11-16T08:12:51.986Z,11.60
2022-11-16T08:15:21.521Z,11.60
2022-11-16T08:17:52.597Z,11.60
2022-11-16T08:20:22.740Z,11.60
2022-11-16T08:22:52.713Z,11.60
2022-11-16T08:25:20.818Z,11.60
2022-11-16T08:27:49.195Z,11.60
2022-11-16T08:30:20.192Z,11.70
2022-11-16T08:32:48.197Z,11.70
2022-11-16T08:35:17.464Z,11.80
2022-11-16T08:37:47.721Z,11.80
2022-11-16T08:40:16.779Z,11.80
2022-11-16T08:42:45.155Z,11.80
2022-11-16T08:45:13.902Z,11.80
2022-11-16T08:47:42.875Z,11.80
2022-11-16T08:50:11.354Z,11.90
2022-11-16T08:52:39.648Z,11.90
2022-11-16T08:55:10.434Z,11.90
2022-11-16T08:57:39.524Z,11.90
2022-11-16T09:00:12.214Z,11.90
2022-11-16T09:02:40.268Z,12.00
2022-11-16T09:05:11.812Z,12.10
2022-11-16T09:07:40.700Z,12.20
2022-11-16T09:10:11.363Z,12.30
2022-11-16T09:12:39.870Z,12.40
2022-11-16T09:15:09.189Z,12.40
2022-11-16T09:17:37.208Z,12.50
2022-11-16T09:20:06.295Z,12.60
2022-11-16T09:22:34.336Z,12.60
2022-11-16T09:25:02.305Z,12.60
2022-11-16T09:27:31.674Z,12.70
2022-11-16T09:29:59.704Z,12.70
2022-11-16T09:32:27.699Z,12.80
2022-11-16T09:34:55.721Z,12.90
2022-11-16T09:37:23.679Z,12.90
2022-11-16T09:39:52.271Z,13.00
2022-11-16T09:42:29.731Z,13.10
2022-11-16T09:45:06.192Z,13.20
2022-11-16T09:47:46.052Z,13.20
2022-11-16T09:50:39.624Z,13.10
2022-11-16T09:53:19.536Z,13.10
2022-11-16T09:55:51.401Z,13.00
2022-11-16T09:58:24.727Z,13.00
2022-11-16T10:01:00.088Z,13.00
2022-11-16T10:03:30.089Z,13.00
2022-11-16T10:06:03.788Z,13.00
2022-11-16T10:08:44.128Z,13.00
2022-11-16T10:11:47.307Z,13.10
2022-11-16T10:14:38.227Z,13.10
2022-11-16T10:17:18.543Z,13.10
2022-11-16T10:19:54.391Z,13.10
2022-11-16T10:22:32.839Z,13.10
2022-11-16T10:25:01.867Z,13.10
2022-11-16T10:27:48.172Z,13.20
2022-11-16T10:30:18.266Z,13.20
2022-11-16T10:32:54.145Z,13.20
2022-11-16T10:35:29.655Z,13.20
2022-11-16T10:37:59.446Z,13.20
2022-11-16T10:40:30.493Z,13.30
2022-11-16T10:43:06.644Z,13.30
2022-11-16T10:45:40.618Z,13.30
2022-11-16T10:48:30.287Z,13.30
2022-11-16T10:50:58.617Z,13.40
2022-11-16T10:53:33.836Z,13.40
2022-11-16T10:56:17.371Z,13.40
2022-11-16T10:58:57.478Z,13.40
2022-11-16T11:01:36.360Z,13.50
2022-11-16T11:04:20.394Z,13.50
2022-11-16T11:06:51.398Z,13.40
2022-11-16T11:09:28.112Z,13.50
2022-11-16T11:12:17.211Z,13.50
2022-11-16T11:15:03.503Z,13.50
2022-11-16T11:17:32.638Z,13.50
2022-11-16T11:20:04.174Z,13.40
2022-11-16T11:22:33.990Z,13.40
2022-11-16T11:25:04.304Z,13.30
2022-11-16T11:27:35.697Z,13.40
2022-11-16T11:30:04.857Z,13.40
2022-11-16T11:32:35.527Z,13.50
2022-11-16T11:35:06.513Z,13.50
2022-11-16T11:37:37.297Z,13.50
2022-11-16T11:40:22.864Z,13.50
2022-11-16T11:42:57.381Z,13.50
2022-11-16T11:45:30.786Z,13.50
2022-11-16T11:48:02.665Z,13.50
2022-11-16T11:50:43.483Z,13.50
2022-11-16T11:53:22.256Z,13.60
2022-11-16T11:55:56.661Z,13.70
2022-11-16T11:58:29.307Z,13.70
2022-11-16T12:01:14.464Z,13.80
2022-11-16T12:04:06.681Z,13.90
2022-11-16T12:06:43.709Z,13.90
2022-11-16T12:09:24.574Z,14.00
2022-11-16T12:12:09.256Z,14.10
2022-11-16T12:15:01.860Z,14.10
2022-11-16T12:17:40.188Z,14.20
2022-11-16T12:20:22.623Z,14.20
2022-11-16T12:23:20.706Z,14.20
2022-11-16T12:25:56.666Z,14.40
2022-11-16T12:28:49.883Z,14.50
2022-11-16T12:31:41.547Z,14.60
2022-11-16T12:34:17.358Z,14.50
2022-11-16T12:36:56.932Z,14.40
2022-11-16T12:39:31.117Z,14.20
2022-11-16T12:42:20.031Z,14.10
2022-11-16T12:45:01.833Z,14.10
2022-11-16T12:47:37.555Z,14.10
2022-11-16T12:50:16.211Z,14.30
2022-11-16T12:53:16.173Z,14.50
2022-11-16T12:55:55.490Z,14.70
2022-11-16T12:58:34.413Z,14.70
2022-11-16T13:01:10.705Z,14.60
2022-11-16T13:03:46.721Z,14.40
2022-11-16T13:06:19.052Z,14.30
2022-11-16T13:08:58.042Z,14.40
2022-11-16T13:11:31.586Z,14.60
2022-11-16T13:14:03.349Z,14.70
2022-11-16T13:16:31.766Z,14.80
2022-11-16T13:19:01.704Z,14.80
2022-11-16T13:21:42.539Z,14.70
2022-11-16T13:24:39.450Z,14.70
2022-11-16T13:27:31.376Z,14.60
2022-11-16T13:30:05.045Z,14.70
2022-11-16T13:32:48.598Z,14.70
2022-11-16T13:35:19.216Z,14.80
2022-11-16T13:37:49.382Z,14.80
2022-11-16T13:40:35.416Z,14.80
2022-11-16T13:43:22.747Z,14.80
2022-11-16T13:46:00.163Z,14.70
2022-11-16T13:48:34.369Z,14.60
2022-11-16T13:51:05.065Z,14.60
2022-11-16T13:56:29.032Z,14.50
2022-11-16T13:58:59.994Z,14.50
2022-11-16T14:01:58.477Z,14.40
2022-11-16T14:04:42.954Z,14.30
2022-11-16T14:07:36.895Z,14.30
2022-11-16T14:10:07.822Z,14.30
2022-11-16T14:12:58.395Z,14.20
2022-11-16T14:15:38.847Z,14.20
2022-11-16T14:18:32.157Z,14.20
2022-11-16T14:21:02.764Z,14.10
2022-11-16T14:23:39.751Z,14.10
2022-11-16T14:26:21.096Z,14.10
2022-11-16T14:29:08.672Z,14.10
2022-11-16T14:31:52.178Z,14.10
2022-11-16T14:34:23.358Z,14.10
2022-11-16T14:36:52.314Z,14.10
2022-11-16T14:39:38.191Z,14.10
2022-11-16T14:42:15.493Z,14.10
2022-11-16T14:44:44.184Z,14.10
2022-11-16T14:47:23.822Z,14.10
2022-11-16T14:49:52.307Z,14.10
2022-11-16T14:52:35.529Z,14.20
2022-11-16T14:55:09.120Z,14.20
2022-11-16T14:57:37.509Z,14.10
2022-11-16T15:00:11.872Z,14.10
2022-11-16T15:02:41.922Z,14.10
2022-11-16T15:05:17.829Z,14.00
2022-11-16T15:07:49.634Z,14.00
2022-11-16T15:10:20.195Z,13.90
2022-11-16T15:12:51.582Z,13.90
2022-11-16T15:15:23.429Z,13.80
2022-11-16T15:18:07.513Z,13.80
2022-11-16T15:20:37.164Z,13.80
2022-11-16T15:23:14.177Z,13.80
2022-11-16T15:25:44.961Z,13.70
2022-11-16T15:28:17.712Z,13.70
2022-11-16T15:30:49.393Z,13.70
2022-11-16T15:33:23.372Z,13.70
2022-11-16T15:35:51.629Z,13.70
2022-11-16T15:38:22.510Z,13.60
2022-11-16T15:40:53.117Z,13.60
2022-11-16T15:43:24.333Z,13.60
2022-11-16T15:45:53.253Z,13.60
2022-11-16T15:48:24.270Z,13.60
2022-11-16T15:51:05.951Z,13.60
2022-11-16T15:53:36.802Z,13.50
2022-11-16T15:56:07.068Z,13.50
2022-11-16T15:58:39.641Z,13.50
2022-11-16T16:01:08.511Z,13.40
2022-11-16T16:03:39.174Z,13.40
2022-11-16T16:06:09.420Z,13.40
2022-11-16T16:08:39.278Z,13.40
2022-11-16T16:11:11.396Z,13.40
2022-11-16T16:13:41.592Z,13.30
2022-11-16T16:16:20.999Z,13.20
2022-11-16T16:18:51.017Z,13.30
2022-11-16T16:21:19.314Z,13.20
2022-11-16T16:23:48.441Z,13.20
2022-11-16T16:26:17.098Z,13.20
2022-11-16T16:28:45.368Z,13.10
2022-11-16T16:31:14.575Z,13.10
2022-11-16T16:33:42.650Z,13.00
2022-11-16T16:36:13.692Z,13.00
2022-11-16T16:38:42.017Z,13.00
2022-11-16T16:41:23.716Z,13.00
2022-11-16T16:43:52.630Z,12.90
2022-11-16T16:46:21.716Z,12.90
2022-11-16T16:48:49.859Z,12.90
2022-11-16T16:51:19.352Z,12.90
2022-11-16T16:53:47.504Z,12.80
2022-11-16T16:56:17.673Z,12.80
2022-11-16T16:58:45.690Z,12.80
2022-11-16T17:01:14.224Z,12.80
2022-11-16T17:03:42.352Z,12.70
2022-11-16T17:06:10.537Z,12.70
2022-11-16T17:08:40.211Z,12.70
2022-11-16T17:11:08.991Z,12.70
2022-11-16T17:13:37.357Z,12.60
2022-11-16T17:16:06.693Z,12.60
2022-11-16T17:18:34.754Z,12.60
2022-11-16T17:21:07.027Z,12.50
2022-11-16T17:23:35.505Z,12.50
2022-11-16T17:26:06.717Z,12.50
2022-11-16T17:28:35.424Z,12.40
2022-11-16T17:31:04.016Z,12.40
2022-11-16T17:33:34.962Z,12.40
2022-11-16T17:36:03.997Z,12.30
2022-11-16T17:38:32.110Z,12.30
2022-11-16T17:41:09.527Z,12.20
2022-11-16T17:43:37.803Z,12.30
2022-11-16T17:46:07.121Z,12.30
2022-11-16T17:48:35.950Z,12.20
2022-11-16T17:51:04.124Z,12.20
2022-11-16T17:53:34.371Z,12.10
2022-11-16T17:56:03.362Z,12.10
2022-11-16T17:58:33.078Z,12.10
2022-11-16T18:01:01.501Z,12.10
2022-11-16T18:03:29.855Z,12.10
2022-11-16T18:06:04.916Z,12.10
2022-11-16T18:08:33.120Z,12.00
2022-11-16T18:11:05.412Z,12.00
2022-11-16T18:13:35.569Z,11.90
2022-11-16T18:16:05.900Z,11.90
2022-11-16T18:18:34.224Z,11.90
2022-11-16T18:21:02.267Z,11.90
2022-11-16T18:23:30.326Z,11.90
2022-11-16T18:25:58.353Z,11.80
2022-11-16T18:28:26.890Z,11.80
2022-11-16T18:31:03.290Z,11.70
2022-11-16T18:33:31.648Z,11.70
2022-11-16T18:36:02.339Z,11.70
2022-11-16T18:38:30.485Z,11.70
2022-11-16T18:41:06.864Z,11.70
2022-11-16T18:43:35.900Z,11.70
2022-11-16T18:46:06.442Z,11.70
2022-11-16T18:48:34.600Z,11.70
2022-11-16T18:51:03.798Z,11.70
2022-11-16T18:53:34.038Z,11.60
2022-11-16T18:56:02.497Z,11.60
2022-11-16T19:01:21.869Z,11.60
2022-11-16T19:03:50.068Z,11.60
2022-11-16T19:06:18.485Z,11.70
2022-11-16T19:08:53.651Z,11.70
2022-11-16T19:11:24.388Z,11.70
2022-11-16T19:13:54.507Z,11.70
2022-11-16T19:16:30.242Z,11.70
2022-11-16T19:18:58.595Z,11.80
2022-11-16T19:21:27.732Z,11.80
2022-11-16T19:23:57.407Z,11.70
2022-11-16T19:26:27.175Z,11.70
2022-11-16T19:28:55.866Z,11.80
2022-11-16T19:31:27.222Z,11.80
2022-11-16T19:33:55.987Z,11.80
2022-11-16T19:36:25.386Z,11.70
2022-11-16T19:38:53.558Z,11.70
2022-11-16T19:41:22.545Z,11.80
2022-11-16T19:43:52.472Z,11.80
2022-11-16T19:46:21.545Z,11.80
2022-11-16T19:48:51.721Z,11.80
2022-11-16T19:51:22.017Z,11.80
2022-11-16T19:53:50.339Z,11.90
2022-11-16T19:56:19.858Z,11.80
2022-11-16T19:58:48.587Z,11.80
2022-11-16T20:01:18.269Z,11.80
2022-11-16T20:03:52.437Z,11.80
2022-11-16T20:06:22.377Z,11.80
2022-11-16T20:08:52.633Z,11.80
2022-11-16T20:11:22.724Z,11.70
2022-11-16T20:13:53.143Z,11.70
2022-11-16T20:16:23.779Z,11.70
2022-11-16T20:18:53.876Z,11.70
2022-11-16T20:21:25.531Z,11.80
2022-11-16T20:23:55.579Z,11.70
2022-11-16T20:26:25.065Z,11.70
2022-11-16T20:28:54.093Z,11.70
2022-11-16T20:31:23.865Z,11.70
2022-11-16T20:33:54.505Z,11.80
2022-11-16T20:36:23.639Z,11.80
2022-11-16T20:38:51.945Z,11.80
2022-11-16T20:41:22.486Z,11.80
2022-11-16T20:43:52.846Z,11.80
2022-11-16T20:46:23.416Z,11.80
2022-11-16T20:48:54.456Z,11.80
2022-11-16T20:51:22.738Z,11.80
2022-11-16T20:53:51.947Z,11.80
2022-11-16T20:56:21.368Z,11.80
2022-11-16T20:58:50.134Z,11.80
2022-11-16T21:01:19.982Z,11.90
2022-11-16T21:03:48.210Z,11.80
2022-11-16T21:06:17.569Z,11.80
2022-11-16T21:08:45.808Z,11.80
2022-11-16T21:11:15.746Z,11.90
2022-11-16T21:14:03.128Z,11.80
2022-11-16T21:16:31.838Z,11.80
2022-11-16T21:19:00.156Z,11.80
2022-11-16T21:21:30.175Z,11.80
2022-11-16T21:23:58.229Z,11.80
2022-11-16T21:26:27.943Z,11.80
2022-11-16T21:28:56.771Z,11.80
2022-11-16T21:31:26.824Z,11.80
2022-11-16T21:33:55.456Z,11.90
2022-11-16T21:36:25.751Z,11.90
2022-11-16T21:38:56.366Z,11.90
2022-11-16T21:41:25.772Z,11.90
2022-11-16T21:43:54.173Z,11.90
2022-11-16T21:46:24.629Z,11.90
2022-11-16T21:48:53.750Z,11.80
2022-11-16T21:51:24.694Z,11.90
2022-11-16T21:53:54.366Z,11.90
2022-11-16T21:56:24.094Z,11.90
2022-11-16T21:58:52.761Z,11.80
2022-11-16T22:01:21.587Z,11.80
2022-11-16T22:04:10.444Z,11.80
2022-11-16T22:06:55.802Z,11.90
2022-11-16T22:09:25.194Z,11.90
2022-11-16T22:11:53.602Z,11.80
2022-11-16T22:14:21.607Z,11.90
2022-11-16T22:16:49.628Z,11.90
2022-11-16T22:19:17.664Z,11.90
2022-11-16T22:21:45.655Z,11.90
2022-11-16T22:24:13.688Z,11.90
2022-11-16T22:26:43.179Z,11.80
2022-11-16T22:29:11.331Z,11.80
2022-11-16T22:31:40.147Z,11.80
2022-11-16T22:34:08.182Z,11.80
2022-11-16T22:36:36.189Z,11.80
2022-11-16T22:39:04.316Z,11.80
2022-11-16T22:41:32.390Z,11.70
2022-11-16T22:44:01.715Z,11.70
2022-11-16T22:46:29.724Z,11.70
2022-11-16T22:48:57.757Z,11.70
2022-11-16T22:51:28.795Z,11.70
2022-11-16T22:53:58.133Z,11.60
2022-11-16T22:56:26.566Z,11.60
2022-11-16T22:58:54.909Z,11.60
2022-11-16T23:01:24.664Z,11.60
2022-11-16T23:03:52.793Z,11.60
2022-11-16T23:06:20.815Z,11.60
2022-11-16T23:08:48.840Z,11.60
2022-11-16T23:11:36.311Z,11.60
2022-11-16T23:14:22.879Z,11.60
2022-11-16T23:16:53.039Z,11.60
2022-11-16T23:19:39.500Z,11.60
2022-11-16T23:22:25.837Z,11.60
2022-11-16T23:25:13.754Z,11.60
2022-11-16T23:27:45.805Z,11.60
2022-11-16T23:30:14.169Z,11.70
2022-11-16T23:32:43.744Z,11.60
2022-11-16T23:35:12.027Z,11.60
2022-11-16T23:37:55.760Z,11.60
2022-11-16T23:40:26.871Z,11.70
2022-11-16T23:43:13.250Z,11.60
2022-11-16T23:45:42.845Z,11.60
2022-11-16T23:48:14.164Z,11.60
2022-11-16T23:50:42.705Z,11.70
2022-11-16T23:53:11.615Z,11.80
2022-11-16T23:55:40.696Z,11.80
2022-11-16T23:58:12.486Z,11.70
